Time;durP1;ratioP1;P1;durP2;ratioP2;P2;SDS_P1;SDS_P2;PMS_P1;PMS_P2;Temp;Humidity;BMP_temperature;BMP_pressure;BME280_temperature;BME280_humidity;BME280_pressure;Samples;Min_cycle;Max_cycle;Signal;HPM_P1;HPM_P2
2021/12/17 00:01:00;;;;;;;184.45;53.33;;;9.00;99.90;;;;;;5050086;28;20025;-78
2021/12/17 00:03:39;;;;;;;172.93;52.42;;;9.00;99.90;;;;;;5051040;28;20037;-78
2021/12/17 00:08:35;;;;;;;100.88;41.03;;;9.00;99.90;;;;;;5051121;28;20112;-78
2021/12/17 00:11:01;;;;;;;187.23;53.95;;;9.00;99.90;;;;;;5068137;28;20136;-78
2021/12/17 00:13:27;;;;;;;179.48;52.38;;;9.00;99.90;;;;;;5070548;28;20072;-78
2021/12/17 00:15:52;;;;;;;160.82;49.67;;;9.00;99.90;;;;;;5070969;28;20055;-78
2021/12/17 00:18:29;;;;;;;143.05;45.17;;;9.00;99.90;;;;;;5070687;28;20086;-77
2021/12/17 00:53:20;;;;;;;132.50;46.90;;;9.00;99.90;;;;;;5052577;28;20518;-78
2021/12/17 00:55:46;;;;;;;118.68;43.72;;;9.10;99.90;;;;;;5052229;28;20037;-77
2021/12/17 00:58:12;;;;;;;124.55;43.05;;;9.10;99.90;;;;;;5052264;28;20032;-78
2021/12/17 01:00:37;;;;;;;172.23;51.08;;;9.10;99.90;;;;;;5057269;28;20078;-78
2021/12/17 01:03:03;;;;;;;159.95;47.05;;;9.00;99.90;;;;;;5072133;28;20485;-78
2021/12/17 01:05:30;;;;;;;96.10;39.20;;;9.00;99.90;;;;;;5070433;28;20029;-78
2021/12/17 01:07:58;;;;;;;89.93;38.40;;;9.00;99.90;;;;;;5052826;28;20037;-78
2021/12/17 01:10:51;;;;;;;115.50;42.33;;;9.00;99.90;;;;;;5052083;28;20025;-78
2021/12/17 01:13:17;;;;;;;191.40;52.65;;;9.00;99.90;;;;;;5052293;28;20490;-78
2021/12/17 01:15:44;;;;;;;113.20;40.47;;;9.00;99.90;;;;;;5051881;28;20115;-78
2021/12/17 01:18:15;;;;;;;118.45;42.97;;;9.00;99.90;;;;;;5052262;28;20025;-78
2021/12/17 01:36:31;;;;;;;118.03;42.10;;;9.00;99.90;;;;;;5032377;28;20379;-78
2021/12/17 01:44:02;;;;;;;108.45;39.88;;;9.10;99.90;;;;;;5032440;28;20037;-78
2021/12/17 01:46:31;;;;;;;106.13;40.83;;;9.10;99.90;;;;;;5032157;28;20025;-78
2021/12/17 01:49:18;;;;;;;112.25;40.63;;;9.10;99.90;;;;;;5034772;28;20018;-78
2021/12/17 02:00:23;;;;;;;122.93;41.53;;;9.10;99.90;;;;;;5052059;28;20035;-78
2021/12/17 02:02:53;;;;;;;139.93;42.35;;;9.10;99.90;;;;;;5050397;28;20440;-78
2021/12/17 02:05:19;;;;;;;117.53;40.75;;;9.10;99.90;;;;;;5051894;28;20119;-78
2021/12/17 02:07:48;;;;;;;133.43;42.28;;;9.20;99.90;;;;;;5051940;28;20068;-78
2021/12/17 02:32:07;;;;;;;141.18;42.35;;;9.10;99.90;;;;;;5035455;28;20048;-78
2021/12/17 02:37:07;;;;;;;140.00;41.95;;;9.10;99.90;;;;;;5035455;28;20029;-78
2021/12/17 02:45:31;;;;;;;148.85;40.63;;;9.10;99.90;;;;;;5035180;28;20059;-78
2021/12/17 02:45:32;;;;;;;165.98;41.38;;;9.10;99.90;;;;;;5034938;28;20029;-78
2021/12/17 02:48:19;;;;;;;200.30;43.72;;;9.10;99.90;;;;;;5033644;28;20483;-78
2021/12/17 02:50:55;;;;;;;164.65;40.00;;;9.10;99.90;;;;;;5052015;28;20033;-78
2021/12/17 02:53:22;;;;;;;164.35;39.75;;;9.10;99.90;;;;;;5054681;28;20441;-78
2021/12/17 02:56:08;;;;;;;154.60;39.92;;;9.20;99.90;;;;;;5054581;28;20021;-78
2021/12/17 02:58:35;;;;;;;169.63;38.92;;;9.20;99.90;;;;;;5054498;28;20033;-78
2021/12/17 03:01:03;;;;;;;171.65;38.10;;;9.10;99.90;;;;;;5054470;28;20017;-78
2021/12/17 03:03:32;;;;;;;180.75;40.40;;;9.10;99.90;;;;;;5054832;28;20597;-78
2021/12/17 03:05:58;;;;;;;229.15;41.63;;;9.10;99.90;;;;;;5054289;28;20096;-78
2021/12/17 03:08:24;;;;;;;218.48;42.63;;;9.10;99.90;;;;;;5054747;28;20428;-78
2021/12/17 03:10:51;;;;;;;209.80;41.08;;;9.10;99.90;;;;;;5054592;28;20044;-78
2021/12/17 03:13:21;;;;;;;202.23;40.95;;;9.00;99.90;;;;;;5054493;28;20029;-78
2021/12/17 03:15:52;;;;;;;193.90;38.20;;;9.00;99.90;;;;;;5052960;28;20056;-78
2021/12/17 03:26:06;;;;;;;201.52;42.30;;;8.90;99.90;;;;;;5033213;28;20079;-78
2021/12/17 03:28:32;;;;;;;241.68;42.40;;;8.90;99.90;;;;;;5033940;28;20018;-78
2021/12/17 03:30:59;;;;;;;211.85;41.00;;;8.90;99.90;;;;;;5033915;28;20029;-78
2021/12/17 03:33:24;;;;;;;192.35;40.85;;;8.90;99.90;;;;;;5033806;28;20447;-78
2021/12/17 03:35:51;;;;;;;248.18;41.97;;;9.00;99.90;;;;;;5034058;28;20025;-78
2021/12/17 03:38:17;;;;;;;215.80;40.30;;;9.00;99.90;;;;;;5033682;28;20021;-78
2021/12/17 03:40:45;;;;;;;202.45;40.00;;;9.00;99.90;;;;;;5033683;28;20050;-78
2021/12/17 03:43:12;;;;;;;201.98;42.13;;;8.90;99.90;;;;;;5032466;28;20029;-77
2021/12/17 03:45:41;;;;;;;218.88;43.17;;;8.90;99.90;;;;;;5033598;28;20108;-78
2021/12/17 03:48:07;;;;;;;185.07;40.63;;;9.00;99.90;;;;;;5033741;28;20034;-78
2021/12/17 03:50:35;;;;;;;198.52;42.63;;;9.00;99.90;;;;;;5033529;28;20099;-78
2021/12/17 03:53:01;;;;;;;186.48;39.92;;;9.00;99.90;;;;;;5033743;28;20080;-78
2021/12/17 03:55:27;;;;;;;165.20;39.03;;;8.90;99.90;;;;;;5033443;28;20091;-78
2021/12/17 03:57:53;;;;;;;187.93;41.00;;;8.90;99.90;;;;;;5033792;28;20063;-78
2021/12/17 04:00:19;;;;;;;158.77;38.28;;;8.90;99.90;;;;;;5033969;28;20031;-78
2021/12/17 04:02:46;;;;;;;167.30;39.28;;;8.90;99.90;;;;;;5033404;28;20033;-77
2021/12/17 04:05:12;;;;;;;193.70;40.47;;;8.90;99.90;;;;;;5033475;28;20052;-78
2021/12/17 04:07:37;;;;;;;169.35;41.08;;;8.90;99.90;;;;;;5051843;28;20062;-78
2021/12/17 04:10:04;;;;;;;174.15;39.70;;;9.00;99.90;;;;;;5053234;28;20025;-78
2021/12/17 04:13:14;;;;;;;179.35;38.17;;;8.90;99.90;;;;;;5053137;28;20467;-78
2021/12/17 04:15:34;;;;;;;160.63;37.77;;;8.90;99.90;;;;;;5052919;28;20486;-78
2021/12/17 04:18:00;;;;;;;177.27;38.40;;;8.90;99.90;;;;;;5053248;28;20272;-77
2021/12/17 04:20:26;;;;;;;167.45;38.05;;;8.80;99.90;;;;;;5043613;28;20013;-78
2021/12/17 04:22:52;;;;;;;158.00;37.90;;;8.80;99.90;;;;;;5033040;28;20032;-77
2021/12/17 04:25:18;;;;;;;169.00;39.42;;;8.80;99.90;;;;;;5031626;28;20144;-78
2021/12/17 04:27:44;;;;;;;161.70;37.88;;;8.80;99.90;;;;;;5033106;28;20037;-78
2021/12/17 04:30:10;;;;;;;171.10;38.30;;;8.80;99.90;;;;;;5032841;28;20026;-77
2021/12/17 04:32:35;;;;;;;172.50;38.08;;;8.80;99.90;;;;;;5032435;28;20037;-78
2021/12/17 04:35:01;;;;;;;150.98;37.65;;;8.80;99.90;;;;;;5033084;28;20021;-78
2021/12/17 04:37:27;;;;;;;152.85;35.70;;;8.70;99.90;;;;;;5032400;28;20562;-78
2021/12/17 04:39:52;;;;;;;174.07;37.55;;;8.70;99.90;;;;;;5032726;28;20022;-78
2021/12/17 04:42:32;;;;;;;162.27;36.33;;;8.70;99.90;;;;;;5032740;28;20104;-78
2021/12/17 04:44:58;;;;;;;143.70;32.88;;;8.70;99.90;;;;;;5032679;28;20025;-78
2021/12/17 04:57:58;;;;;;;107.80;29.15;;;8.60;99.90;;;;;;5032274;28;20053;-78
2021/12/17 05:00:28;;;;;;;112.72;29.33;;;8.60;99.90;;;;;;5032597;28;20025;-78
2021/12/17 05:02:56;;;;;;;107.53;28.45;;;8.50;99.90;;;;;;5032550;28;20543;-78
2021/12/17 05:05:27;;;;;;;99.45;28.02;;;8.60;99.90;;;;;;5032739;28;20029;-78
2021/12/17 05:07:57;;;;;;;99.93;25.95;;;8.60;99.90;;;;;;5032767;28;20028;-78
2021/12/17 05:10:54;;;;;;;103.45;28.58;;;8.60;99.90;;;;;;5040563;28;20036;-78
2021/12/17 05:18:53;;;;;;;121.85;28.63;;;8.60;99.90;;;;;;5052514;28;20433;-78
2021/12/17 05:21:22;;;;;;;105.60;25.45;;;8.50;99.90;;;;;;5035910;28;20018;-78
2021/12/17 05:23:51;;;;;;;97.95;26.42;;;8.50;99.90;;;;;;5032854;28;20480;-78
2021/12/17 05:26:19;;;;;;;103.22;26.55;;;8.50;99.90;;;;;;5032858;28;20025;-78
2021/12/17 05:28:46;;;;;;;102.28;26.48;;;8.50;99.90;;;;;;5032377;28;20026;-78
2021/12/17 05:31:14;;;;;;;87.28;23.88;;;8.50;99.90;;;;;;5032402;28;20112;-78
2021/12/17 05:33:40;;;;;;;93.05;26.23;;;8.50;99.90;;;;;;5032169;28;20017;-78
2021/12/17 05:36:06;;;;;;;78.93;23.92;;;8.50;99.90;;;;;;5032266;28;20205;-78
2021/12/17 05:38:31;;;;;;;89.38;23.70;;;8.50;99.90;;;;;;5032413;28;20022;-78
2021/12/17 05:40:57;;;;;;;81.95;23.70;;;8.50;99.90;;;;;;5032155;28;20079;-78
2021/12/17 05:43:23;;;;;;;88.22;24.25;;;8.50;99.90;;;;;;5032512;28;20036;-78
2021/12/17 05:48:22;;;;;;;111.72;26.52;;;8.50;99.90;;;;;;5032663;28;20033;-78
2021/12/17 05:50:57;;;;;;;111.05;26.00;;;8.50;99.90;;;;;;5048088;28;20029;-78
2021/12/17 05:53:24;;;;;;;118.60;26.25;;;8.50;99.90;;;;;;5036085;28;20030;-78
2021/12/17 05:55:50;;;;;;;90.15;24.05;;;8.40;99.90;;;;;;5035884;28;20113;-78
2021/12/17 05:58:16;;;;;;;90.85;23.02;;;8.50;99.90;;;;;;5034326;28;20053;-78
2021/12/17 06:00:44;;;;;;;79.93;22.42;;;8.50;99.90;;;;;;5035381;28;20029;-78
2021/12/17 06:03:09;;;;;;;95.18;24.60;;;8.50;99.90;;;;;;5034352;28;20099;-78
2021/12/17 06:05:36;;;;;;;99.38;25.15;;;8.50;99.90;;;;;;5037197;28;20538;-78
2021/12/17 06:08:02;;;;;;;104.00;24.58;;;8.50;99.90;;;;;;5055801;28;20032;-78
2021/12/17 06:10:28;;;;;;;98.35;24.60;;;8.50;99.90;;;;;;5055527;28;20216;-78
2021/12/17 06:12:54;;;;;;;96.95;24.45;;;8.50;99.90;;;;;;5055682;28;20525;-78
2021/12/17 06:15:21;;;;;;;113.00;25.75;;;8.50;99.90;;;;;;5055605;28;20037;-78
2021/12/17 06:17:48;;;;;;;87.50;22.80;;;8.50;99.90;;;;;;5055474;28;20104;-78
2021/12/17 06:20:15;;;;;;;90.80;21.35;;;8.40;99.90;;;;;;5048011;28;20534;-78
2021/12/17 06:22:41;;;;;;;98.15;22.88;;;8.40;99.90;;;;;;5035371;28;20033;-78
2021/12/17 06:25:09;;;;;;;85.20;21.40;;;8.40;99.90;;;;;;5035698;28;20029;-78
2021/12/17 06:27:35;;;;;;;87.47;20.80;;;8.40;99.90;;;;;;5036206;28;20405;-78
2021/12/17 06:30:03;;;;;;;72.55;19.73;;;8.40;99.90;;;;;;5034065;28;20034;-78
2021/12/17 06:32:29;;;;;;;85.13;20.83;;;8.40;99.90;;;;;;5035341;28;20036;-78
2021/12/17 06:34:55;;;;;;;74.63;18.38;;;8.40;99.90;;;;;;5035099;28;20032;-78
2021/12/17 06:37:21;;;;;;;72.32;18.08;;;8.40;99.90;;;;;;5035613;28;20021;-78
2021/12/17 06:39:48;;;;;;;70.55;18.88;;;8.40;99.90;;;;;;5035280;28;20077;-78
2021/12/17 06:42:14;;;;;;;97.50;20.95;;;8.40;99.90;;;;;;5034048;28;20037;-78
2021/12/17 06:44:41;;;;;;;89.60;21.05;;;8.40;99.90;;;;;;5035277;28;20422;-78
2021/12/17 06:47:12;;;;;;;96.70;20.92;;;8.40;99.90;;;;;;5035110;28;20025;-78
2021/12/17 07:34:08;;;;;;;69.00;17.95;;;8.30;99.90;;;;;;5052011;28;20033;-78
2021/12/17 07:39:25;;;;;;;64.50;16.85;;;8.30;99.90;;;;;;5038082;28;20402;-78
2021/12/17 07:41:51;;;;;;;71.80;16.60;;;8.30;99.90;;;;;;5052556;28;20060;-78
2021/12/17 07:44:16;;;;;;;63.90;16.65;;;8.20;99.90;;;;;;5053999;28;20029;-78
2021/12/17 07:46:42;;;;;;;51.92;15.70;;;8.20;99.90;;;;;;5053615;28;20434;-78
2021/12/17 07:49:08;;;;;;;48.30;15.85;;;8.20;99.90;;;;;;5051022;28;20018;-78
2021/12/17 07:51:33;;;;;;;47.63;14.02;;;8.20;99.90;;;;;;5053756;28;20386;-78
2021/12/17 07:53:59;;;;;;;54.80;16.63;;;8.20;99.90;;;;;;5053337;28;20037;-78
2021/12/17 07:56:27;;;;;;;43.78;15.20;;;8.20;99.90;;;;;;5053222;28;20013;-78
2021/12/17 07:58:53;;;;;;;48.53;15.60;;;8.20;99.90;;;;;;5053551;28;20041;-78
2021/12/17 08:01:19;;;;;;;46.78;15.20;;;8.20;99.90;;;;;;5053488;28;20048;-78
2021/12/17 08:03:45;;;;;;;46.13;14.90;;;8.30;99.90;;;;;;5053483;28;20467;-79
2021/12/17 08:06:12;;;;;;;46.67;14.95;;;8.30;99.90;;;;;;5053070;28;20024;-78
2021/12/17 08:08:37;;;;;;;43.65;15.55;;;8.30;99.90;;;;;;5053500;28;20025;-78
2021/12/17 08:11:04;;;;;;;39.10;14.82;;;8.30;99.90;;;;;;5053270;28;20070;-78
2021/12/17 08:13:33;;;;;;;41.95;13.88;;;8.30;99.90;;;;;;5052667;28;20037;-78
2021/12/17 08:18:51;;;;;;;43.78;14.60;;;8.30;99.90;;;;;;5053451;28;20112;-78
2021/12/17 08:32:06;;;;;;;31.08;12.45;;;8.30;99.90;;;;;;5033573;28;20036;-78
2021/12/17 08:34:32;;;;;;;;;;;8.40;99.90;;;;;;5033722;28;20025;-82
2021/12/17 08:36:58;;;;;;;37.30;12.95;;;8.40;99.90;;;;;;5032539;28;19916;-78
2021/12/17 08:39:25;;;;;;;42.47;13.30;;;8.40;99.90;;;;;;5049398;28;20032;-78
2021/12/17 08:41:53;;;;;;;32.25;13.10;;;8.40;99.90;;;;;;5052673;28;20101;-78
2021/12/17 08:44:19;;;;;;;32.67;11.88;;;8.40;99.90;;;;;;5051556;28;20390;-78
2021/12/17 08:46:45;;;;;;;31.70;12.50;;;8.50;99.90;;;;;;5052702;28;20029;-78
2021/12/17 08:49:10;;;;;;;36.15;12.48;;;8.50;99.90;;;;;;5049426;28;20037;-77
2021/12/17 08:51:40;;;;;;;25.27;11.20;;;8.50;99.90;;;;;;5052499;28;20013;-77
2021/12/17 08:54:06;;;;;;;34.75;12.68;;;8.50;99.90;;;;;;5051046;28;20024;-77
2021/12/17 08:56:37;;;;;;;29.13;11.52;;;8.50;99.90;;;;;;5052442;28;20550;-78
2021/12/17 08:59:05;;;;;;;25.45;11.25;;;8.50;99.90;;;;;;5052271;28;20498;-78
2021/12/17 09:01:31;;;;;;;30.10;11.45;;;8.50;99.90;;;;;;5052380;28;20029;-77
2021/12/17 09:03:57;;;;;;;33.35;11.68;;;8.60;99.90;;;;;;5052601;28;20415;-77
2021/12/17 09:06:26;;;;;;;36.28;12.98;;;8.60;99.90;;;;;;5052447;28;20025;-77
2021/12/17 09:08:54;;;;;;;34.00;11.10;;;8.50;99.90;;;;;;5050265;28;20052;-78
2021/12/17 09:11:22;;;;;;;34.17;11.10;;;8.50;99.90;;;;;;5051798;28;20036;-77
2021/12/17 09:13:48;;;;;;;28.83;10.82;;;8.60;99.90;;;;;;5052315;28;20075;-78
2021/12/17 09:16:13;;;;;;;32.13;10.45;;;8.60;99.90;;;;;;5052361;28;20029;-78
2021/12/17 09:18:39;;;;;;;31.23;10.38;;;8.60;99.90;;;;;;5050819;28;20025;-77
2021/12/17 09:21:05;;;;;;;26.67;10.40;;;8.60;99.90;;;;;;5049436;28;20051;-77
2021/12/17 09:23:31;;;;;;;28.50;10.07;;;8.60;99.90;;;;;;5052661;28;20029;-77
2021/12/17 09:25:56;;;;;;;31.23;10.93;;;8.60;99.90;;;;;;5055001;28;20044;-77
2021/12/17 09:28:22;;;;;;;26.52;10.07;;;8.60;99.90;;;;;;5056050;28;20112;-79
2021/12/17 09:30:48;;;;;;;26.80;10.10;;;8.60;99.90;;;;;;5056027;28;20100;-76
2021/12/17 09:33:14;;;;;;;30.42;9.85;;;8.60;99.90;;;;;;5055815;28;20025;-77
2021/12/17 09:35:39;;;;;;;24.25;8.20;;;8.60;99.90;;;;;;5054805;28;20025;-77
2021/12/17 09:38:05;;;;;;;24.60;8.07;;;8.50;99.90;;;;;;5056187;28;20070;-77
2021/12/17 09:40:31;;;;;;;20.08;7.43;;;8.60;99.90;;;;;;5055902;28;20040;-77
2021/12/17 09:42:56;;;;;;;30.70;9.23;;;8.60;99.90;;;;;;5055870;28;20029;-76
2021/12/17 09:45:22;;;;;;;24.50;7.90;;;8.70;99.90;;;;;;5055659;28;20374;-76
2021/12/17 09:47:48;;;;;;;17.85;6.43;;;8.60;99.90;;;;;;5055614;28;20110;-76
2021/12/17 09:50:16;;;;;;;12.07;5.13;;;8.70;99.90;;;;;;5042234;28;20048;-76
2021/12/17 09:52:42;;;;;;;11.27;5.00;;;8.60;99.90;;;;;;5035483;28;20556;-77
2021/12/17 09:55:08;;;;;;;10.52;4.22;;;8.70;99.90;;;;;;5035152;28;20104;-77
2021/12/17 09:57:37;;;;;;;9.95;4.38;;;8.70;99.90;;;;;;5035125;28;20029;-75
2021/12/17 10:00:13;;;;;;;8.73;4.13;;;8.70;99.90;;;;;;5034073;28;20363;-81
2021/12/17 10:02:43;;;;;;;10.25;4.25;;;8.60;99.90;;;;;;5042924;28;20094;-82
2021/12/17 10:05:13;;;;;;;7.45;3.63;;;8.70;99.90;;;;;;5054631;28;20422;-82
2021/12/17 10:07:41;;;;;;;8.90;3.42;;;8.70;99.90;;;;;;5056732;28;20029;-81
2021/12/17 10:10:07;;;;;;;8.52;4.10;;;8.70;99.90;;;;;;5055874;28;20039;-83
2021/12/17 10:12:35;;;;;;;6.25;3.30;;;8.80;99.90;;;;;;5056063;28;20036;-76
2021/12/17 10:15:08;;;;;;;5.22;2.55;;;8.80;99.90;;;;;;5053736;28;20387;-77
2021/12/17 10:17:35;;;;;;;4.13;2.22;;;8.80;99.90;;;;;;5054545;28;20025;-77
2021/12/17 10:20:03;;;;;;;6.63;2.35;;;8.80;99.90;;;;;;5053998;28;20087;-77
2021/12/17 10:22:31;;;;;;;4.75;2.20;;;8.80;99.90;;;;;;5054191;28;20618;-77
2021/12/17 10:25:06;;;;;;;3.45;1.90;;;8.80;99.90;;;;;;5054688;28;20356;-77
2021/12/17 10:27:37;;;;;;;3.33;1.92;;;8.80;99.90;;;;;;5054542;28;20029;-77
2021/12/17 10:30:13;;;;;;;3.67;1.67;;;8.70;99.90;;;;;;5054012;28;20033;-77
2021/12/17 10:32:48;;;;;;;2.60;1.60;;;8.70;99.90;;;;;;5054149;28;20791;-77
2021/12/17 10:35:17;;;;;;;6.13;2.20;;;8.80;99.90;;;;;;5053560;28;20025;-77
2021/12/17 10:37:55;;;;;;;4.72;2.00;;;8.80;99.90;;;;;;5054332;28;20477;-77
2021/12/17 10:40:36;;;;;;;5.57;2.63;;;8.80;99.90;;;;;;5051620;28;20108;-77
2021/12/17 10:43:28;;;;;;;6.30;2.95;;;8.80;99.90;;;;;;5038949;28;20030;-77
2021/12/17 10:49:24;;;;;;;4.95;2.97;;;8.90;99.90;;;;;;5034600;28;20275;-77
2021/12/17 10:51:45;;;;;;;4.55;2.30;;;8.90;99.90;;;;;;5042047;28;20033;-78
2021/12/17 10:54:29;;;;;;;4.22;2.70;;;8.90;99.90;;;;;;5034224;28;20490;-77
2021/12/17 10:56:55;;;;;;;4.15;2.50;;;8.80;99.90;;;;;;5034322;28;20061;-77
2021/12/17 10:59:28;;;;;;;4.50;2.42;;;8.90;99.90;;;;;;5033951;28;20045;-77
2021/12/17 11:02:01;;;;;;;7.53;3.00;;;8.90;99.90;;;;;;5032940;28;20131;-78
2021/12/17 11:04:34;;;;;;;5.22;2.40;;;8.90;99.90;;;;;;5034057;28;20463;-77
2021/12/17 11:07:02;;;;;;;4.63;2.60;;;8.90;99.90;;;;;;5034386;28;20060;-77
2021/12/17 11:09:47;;;;;;;6.07;3.00;;;8.90;99.90;;;;;;5033438;28;20076;-77
2021/12/17 11:12:37;;;;;;;5.38;2.72;;;8.90;99.90;;;;;;5034020;28;20056;-77
2021/12/17 11:15:24;;;;;;;4.95;2.85;;;9.00;99.90;;;;;;5033648;28;20080;-78
2021/12/17 11:17:54;;;;;;;4.28;2.20;;;8.90;99.90;;;;;;5034124;28;20029;-78
2021/12/17 11:20:29;;;;;;;4.75;2.72;;;9.00;99.90;;;;;;5042221;28;20017;-78
2021/12/17 11:22:56;;;;;;;4.88;3.30;;;9.00;99.90;;;;;;5054098;28;20116;-80
2021/12/17 11:25:24;;;;;;;6.85;3.45;;;8.90;99.90;;;;;;5053486;28;20024;-79
2021/12/17 11:27:52;;;;;;;7.53;3.78;;;8.90;99.90;;;;;;5053718;28;20029;-78
2021/12/17 11:30:22;;;;;;;8.85;4.15;;;8.90;99.90;;;;;;5052415;28;20032;-78
2021/12/17 11:32:49;;;;;;;5.10;3.03;;;8.90;99.90;;;;;;5053671;28;20025;-79
2021/12/17 11:35:17;;;;;;;5.07;3.08;;;8.90;99.90;;;;;;5053462;28;20070;-78
2021/12/17 11:37:46;;;;;;;5.60;3.42;;;9.00;99.90;;;;;;5053390;28;20025;-79
2021/12/17 11:40:36;;;;;;;5.95;3.28;;;9.00;99.90;;;;;;5053081;28;20032;-79
2021/12/17 11:43:48;;;;;;;6.28;3.60;;;8.90;99.90;;;;;;5053182;28;20036;-79
2021/12/17 11:46:14;;;;;;;4.63;2.80;;;9.00;99.90;;;;;;5053301;28;20036;-79
2021/12/17 11:48:49;;;;;;;6.35;2.80;;;9.00;99.90;;;;;;5051714;28;20356;-79
2021/12/17 11:51:25;;;;;;;4.60;3.05;;;9.10;99.90;;;;;;5052494;28;20100;-79
2021/12/17 11:54:00;;;;;;;4.63;2.47;;;9.10;99.90;;;;;;5053105;28;20048;-79
2021/12/17 11:56:34;;;;;;;6.43;2.80;;;9.10;99.90;;;;;;5049965;28;20079;-79
2021/12/17 11:59:01;;;;;;;3.28;2.22;;;9.10;99.90;;;;;;5051851;28;20094;-79
2021/12/17 12:01:49;;;;;;;4.40;2.60;;;9.10;99.90;;;;;;5051115;28;20459;-78
2021/12/17 12:04:34;;;;;;;4.93;2.30;;;9.10;99.90;;;;;;5052624;28;20479;-78
2021/12/17 12:07:08;;;;;;;2.75;1.77;;;9.10;99.90;;;;;;5052077;28;20036;-78
2021/12/17 12:09:56;;;;;;;3.70;2.35;;;9.10;99.90;;;;;;5101471;27;1319565;-79
2021/12/17 12:12:25;;;;;;;4.20;2.47;;;9.20;99.90;;;;;;5106718;28;20030;-79
2021/12/17 12:14:51;;;;;;;5.20;1.95;;;9.10;99.90;;;;;;5130238;28;20084;-79
2021/12/17 12:17:54;;;;;;;5.40;2.30;;;9.20;99.90;;;;;;5130665;27;20055;-79
2021/12/17 12:20:48;;;;;;;3.83;2.33;;;9.20;99.90;;;;;;5113793;28;20027;-80
2021/12/17 12:23:19;;;;;;;3.13;1.80;;;9.20;99.90;;;;;;5089702;28;20077;-77
2021/12/17 12:25:46;;;;;;;3.38;2.00;;;9.30;99.90;;;;;;5089705;28;20028;-82
2021/12/17 12:28:15;;;;;;;6.03;2.53;;;9.40;99.90;;;;;;5089845;28;20108;-78
2021/12/17 12:30:44;;;;;;;3.60;2.20;;;9.50;99.90;;;;;;5089478;28;20020;-76
2021/12/17 12:33:13;;;;;;;4.43;2.50;;;9.60;99.90;;;;;;5088911;28;20074;-79
2021/12/17 12:35:39;;;;;;;4.55;2.30;;;9.70;99.90;;;;;;5089439;28;20027;-79
2021/12/17 12:38:16;;;;;;;5.55;2.28;;;9.70;99.90;;;;;;5089246;28;20429;-78
2021/12/17 12:40:45;;;;;;;4.70;2.35;;;9.80;99.90;;;;;;5089553;28;20034;-79
2021/12/17 12:43:31;;;;;;;4.07;2.60;;;9.80;99.90;;;;;;5089497;28;20081;-79
2021/12/17 12:45:57;;;;;;;3.40;2.50;;;9.70;99.90;;;;;;5089423;28;20024;-78
2021/12/17 12:48:33;;;;;;;4.55;3.20;;;9.80;99.90;;;;;;5087989;28;20040;-80
2021/12/17 12:51:22;;;;;;;3.85;2.55;;;9.80;99.90;;;;;;5094641;28;20020;-79
2021/12/17 12:54:09;;;;;;;3.70;2.67;;;9.90;99.90;;;;;;5113638;28;20476;-76
2021/12/17 12:56:39;;;;;;;6.40;2.70;;;10.00;99.90;;;;;;5129737;27;20089;-78
2021/12/17 12:59:06;;;;;;;4.25;2.58;;;10.00;99.90;;;;;;5129261;27;20020;-77
2021/12/17 13:01:32;;;;;;;3.72;2.40;;;10.00;99.90;;;;;;5129600;27;20035;-77
2021/12/17 13:03:58;;;;;;;6.57;2.70;;;10.00;99.90;;;;;;5128756;28;20119;-77
2021/12/17 13:06:25;;;;;;;3.38;2.60;;;9.90;99.90;;;;;;5129317;28;20112;-77
2021/12/17 13:08:58;;;;;;;3.92;2.40;;;10.00;99.90;;;;;;5128972;27;20161;-77
2021/12/17 13:11:24;;;;;;;4.32;2.60;;;9.90;99.90;;;;;;5129153;27;20031;-77
2021/12/17 13:16:34;;;;;;;6.05;2.60;;;9.90;99.90;;;;;;5129887;27;20023;-77
2021/12/17 13:22:29;;;;;;;5.05;2.60;;;9.90;99.90;;;;;;5075004;28;20390;-77
2021/12/17 13:24:36;;;;;;;3.35;2.58;;;9.80;99.90;;;;;;5074719;28;20436;-80
2021/12/17 13:27:10;;;;;;;4.60;2.90;;;9.80;99.90;;;;;;5075915;28;20123;-80
2021/12/17 13:29:43;;;;;;;4.50;3.13;;;9.90;99.90;;;;;;5075071;28;20386;-79
2021/12/17 13:32:09;;;;;;;;;;;9.90;99.90;;;;;;5092970;28;20428;-79
2021/12/17 13:34:42;;;;;;;5.07;3.13;;;9.90;99.90;;;;;;5111956;28;19911;-78
2021/12/17 13:37:21;;;;;;;4.93;3.03;;;9.90;99.90;;;;;;5106065;28;20077;-78
2021/12/17 13:39:54;;;;;;;4.55;3.10;;;9.80;99.90;;;;;;5114152;28;20011;-78
2021/12/17 13:42:21;;;;;;;4.38;3.42;;;9.80;99.90;;;;;;5113843;28;20043;-78
2021/12/17 13:44:47;;;;;;;5.65;3.22;;;9.80;99.90;;;;;;5114311;28;20095;-78
2021/12/17 13:47:24;;;;;;;5.85;3.78;;;9.80;99.90;;;;;;5114229;28;20106;-78
2021/12/17 13:50:11;;;;;;;5.75;3.50;;;9.80;99.90;;;;;;5108195;28;20527;-80
2021/12/17 13:52:49;;;;;;;5.75;4.00;;;9.80;99.90;;;;;;5115249;28;20039;-79
2021/12/17 13:55:25;;;;;;;5.22;3.70;;;9.80;99.90;;;;;;5115104;28;20012;-77
2021/12/17 13:57:51;;;;;;;4.97;3.65;;;9.70;99.90;;;;;;5114589;28;20067;-77
2021/12/17 14:00:31;;;;;;;6.05;4.15;;;9.70;99.90;;;;;;5114556;28;20035;-78
2021/12/17 14:02:58;;;;;;;8.45;4.65;;;9.70;99.90;;;;;;5114539;28;20016;-78
2021/12/17 14:05:40;;;;;;;11.02;5.50;;;9.70;99.90;;;;;;5114686;27;20043;-78
2021/12/17 14:08:09;;;;;;;10.23;4.80;;;9.70;99.90;;;;;;5094837;27;20043;-77
2021/12/17 14:10:35;;;;;;;7.97;4.88;;;9.70;99.90;;;;;;5093860;28;20095;-75
2021/12/17 14:13:02;;;;;;;7.65;4.45;;;9.70;99.90;;;;;;5093200;28;20023;-76
2021/12/17 14:15:33;;;;;;;8.02;4.75;;;9.60;99.90;;;;;;5086405;28;20399;-77
2021/12/17 14:18:05;;;;;;;5.70;4.30;;;9.70;99.90;;;;;;5075021;28;20138;-77
2021/12/17 14:20:44;;;;;;;;;;;9.60;99.90;;;;;;5091824;28;20136;-77
2021/12/17 14:23:14;;;;;;;5.85;4.10;;;9.60;99.90;;;;;;5074430;28;19939;-77
2021/12/17 14:25:47;;;;;;;6.80;4.47;;;9.60;99.90;;;;;;5074655;28;20029;-81
2021/12/17 14:28:16;;;;;;;6.82;4.70;;;9.60;99.90;;;;;;5073063;28;20111;-81
2021/12/17 14:30:52;;;;;;;9.48;5.78;;;9.50;99.90;;;;;;5074145;28;20079;-81
2021/12/17 14:33:20;;;;;;;29.00;20.67;;;9.50;99.90;;;;;;5074537;28;20031;-80
2021/12/17 14:35:49;;;;;;;27.63;17.85;;;9.50;99.90;;;;;;5073439;28;20028;-78
2021/12/17 14:38:17;;;;;;;16.98;10.85;;;9.50;99.90;;;;;;5074607;28;20024;-79
2021/12/17 14:40:52;;;;;;;9.05;6.03;;;9.60;99.90;;;;;;5073928;28;20540;-78
2021/12/17 14:43:22;;;;;;;11.43;5.75;;;9.50;99.90;;;;;;5074514;28;20032;-78
2021/12/17 14:45:56;;;;;;;11.60;5.80;;;9.50;99.90;;;;;;5073255;28;20040;-79
2021/12/17 14:48:32;;;;;;;8.40;4.95;;;9.50;99.90;;;;;;5073035;28;20020;-80
2021/12/17 15:02:25;;;;;;;6.93;4.65;;;9.40;99.90;;;;;;5034512;28;20042;-80
2021/12/17 15:04:51;;;;;;;6.57;4.18;;;9.40;99.90;;;;;;5034631;28;20041;-80
2021/12/17 15:07:20;;;;;;;6.57;4.57;;;9.30;99.90;;;;;;5035131;28;20076;-80
2021/12/17 15:09:46;;;;;;;6.30;4.88;;;9.40;99.90;;;;;;5021410;28;20045;-73
2021/12/17 15:12:36;;;;;;;8.43;5.10;;;9.30;99.90;;;;;;5013723;28;20045;-73
2021/12/17 15:15:03;;;;;;;6.53;4.88;;;9.30;99.90;;;;;;5029451;28;20045;-72
2021/12/17 15:17:29;;;;;;;7.35;4.97;;;9.30;99.90;;;;;;5030071;28;20097;-74
2021/12/17 15:19:54;;;;;;;7.10;4.68;;;9.30;99.90;;;;;;5029875;28;20212;-73
2021/12/17 15:22:20;;;;;;;7.80;4.93;;;9.30;99.90;;;;;;5030432;28;20065;-74
2021/12/17 15:24:46;;;;;;;7.68;5.43;;;9.20;99.90;;;;;;5032008;28;20432;-73
2021/12/17 15:27:13;;;;;;;8.23;5.32;;;9.20;99.90;;;;;;5040441;28;20090;-73
2021/12/17 15:29:39;;;;;;;8.02;5.47;;;9.20;99.90;;;;;;5034966;28;20025;-70
2021/12/17 15:32:05;;;;;;;11.38;6.28;;;9.20;99.90;;;;;;5029812;28;20065;-73
2021/12/17 15:34:31;;;;;;;11.95;6.35;;;9.20;99.90;;;;;;5037538;28;20016;-73
2021/12/17 15:36:58;;;;;;;9.82;5.90;;;9.20;99.90;;;;;;5036746;28;20032;-73
2021/12/17 15:39:26;;;;;;;11.70;6.72;;;9.20;99.90;;;;;;5081707;28;20047;-74
2021/12/17 15:41:52;;;;;;;8.88;6.20;;;9.20;99.90;;;;;;5112639;28;20030;-75
2021/12/17 15:44:18;;;;;;;10.85;6.45;;;9.20;99.90;;;;;;5112169;28;20024;-75
2021/12/17 15:46:44;;;;;;;10.23;6.57;;;9.20;99.90;;;;;;5112331;28;20034;-75
2021/12/17 15:49:09;;;;;;;10.85;6.63;;;9.20;99.90;;;;;;5106102;28;20011;-71
2021/12/17 15:51:36;;;;;;;9.23;6.75;;;9.20;99.90;;;;;;5111774;28;20028;-72
2021/12/17 15:54:03;;;;;;;7.65;6.20;;;9.20;99.90;;;;;;5111639;28;20072;-71
2021/12/17 15:56:31;;;;;;;12.90;7.35;;;9.20;99.90;;;;;;5110901;28;20810;-71
2021/12/17 15:59:02;;;;;;;11.27;7.40;;;9.20;99.90;;;;;;5110235;28;20111;-72
2021/12/17 16:01:28;;;;;;;11.65;7.55;;;9.20;99.90;;;;;;5111641;28;20032;-72
2021/12/17 16:03:53;;;;;;;12.68;7.53;;;9.20;99.90;;;;;;5105831;28;20020;-72
2021/12/17 16:06:20;;;;;;;13.65;8.52;;;9.20;99.90;;;;;;5111807;28;20025;-75
2021/12/17 16:08:50;;;;;;;14.73;9.13;;;9.20;99.90;;;;;;5111107;28;20116;-73
2021/12/17 16:22:13;;;;;;;11.90;7.65;;;9.10;99.90;;;;;;5091886;28;20118;-75
2021/12/17 16:24:38;;;;;;;13.45;8.25;;;9.10;99.90;;;;;;5091735;28;20454;-75
2021/12/17 16:27:04;;;;;;;9.20;5.50;;;9.10;99.90;;;;;;5083403;28;20029;-75